sensor_id;sensor_type;location;lat;lon;timestamp;pressure;altitude;pressure_sealevel;temperature;humidity
42887;BME280;29032;56.028;92.904;2023-08-08T00:00:17;98413.72;;;17.79;56.43
42887;BME280;29032;56.028;92.904;2023-08-08T00:05:20;98415.50;;;17.74;57.16
42887;BME280;29032;56.028;92.904;2023-08-08T00:10:22;98418.91;;;17.63;57.18
42887;BME280;29032;56.028;92.904;2023-08-08T00:15:24;98414.47;;;17.60;57.28
42887;BME280;29032;56.028;92.904;2023-08-08T00:20:28;98416.84;;;17.73;56.85
42887;BME280;29032;56.028;92.904;2023-08-08T00:25:30;98419.50;;;17.71;57.03
42887;BME280;29032;56.028;92.904;2023-08-08T00:30:32;98432.34;;;17.74;56.93
42887;BME280;29032;56.028;92.904;2023-08-08T00:35:36;98436.00;;;17.86;56.97
42887;BME280;29032;56.028;92.904;2023-08-08T00:40:38;98438.19;;;17.88;57.13
42887;BME280;29032;56.028;92.904;2023-08-08T00:45:42;98437.75;;;17.91;56.89
42887;BME280;29032;56.028;92.904;2023-08-08T00:50:48;98447.78;;;17.94;56.97
42887;BME280;29032;56.028;92.904;2023-08-08T00:55:51;98443.63;;;17.96;57.17
42887;BME280;29032;56.028;92.904;2023-08-08T01:00:55;98441.72;;;17.98;57.11
42887;BME280;29032;56.028;92.904;2023-08-08T01:06:03;98445.50;;;18.12;57.04
42887;BME280;29032;56.028;92.904;2023-08-08T01:11:07;98439.59;;;18.08;57.07
42887;BME280;29032;56.028;92.904;2023-08-08T01:16:11;98448.13;;;18.20;57.11
42887;BME280;29032;56.028;92.904;2023-08-08T01:21:16;98445.69;;;18.36;56.99
42887;BME280;29032;56.028;92.904;2023-08-08T01:26:20;98455.06;;;18.50;57.46
42887;BME280;29032;56.028;92.904;2023-08-08T01:31:23;98453.41;;;18.57;56.60
42887;BME280;29032;56.028;92.904;2023-08-08T01:36:30;98458.06;;;18.73;56.14
42887;BME280;29032;56.028;92.904;2023-08-08T01:41:38;98458.00;;;18.83;56.14
42887;BME280;29032;56.028;92.904;2023-08-08T01:46:41;98451.16;;;18.86;56.74
42887;BME280;29032;56.028;92.904;2023-08-08T01:51:43;98449.25;;;18.89;55.89
42887;BME280;29032;56.028;92.904;2023-08-08T01:56:47;98456.72;;;18.96;55.97
42887;BME280;29032;56.028;92.904;2023-08-08T02:01:49;98440.72;;;18.98;55.98
42887;BME280;29032;56.028;92.904;2023-08-08T02:06:51;98450.41;;;19.07;56.16
42887;BME280;29032;56.028;92.904;2023-08-08T02:11:54;98445.69;;;19.21;56.08
42887;BME280;29032;56.028;92.904;2023-08-08T02:16:56;98436.47;;;19.30;56.21
42887;BME280;29032;56.028;92.904;2023-08-08T02:21:59;98435.50;;;19.38;55.61
42887;BME280;29032;56.028;92.904;2023-08-08T02:27:02;98441.66;;;19.46;55.70
42887;BME280;29032;56.028;92.904;2023-08-08T02:32:05;98442.28;;;19.44;55.68
42887;BME280;29032;56.028;92.904;2023-08-08T02:37:08;98440.59;;;19.51;55.40
42887;BME280;29032;56.028;92.904;2023-08-08T02:42:11;98441.47;;;19.65;55.31
42887;BME280;29032;56.028;92.904;2023-08-08T02:47:13;98437.09;;;19.74;55.83
42887;BME280;29032;56.028;92.904;2023-08-08T02:52:16;98436.13;;;19.81;55.51
42887;BME280;29032;56.028;92.904;2023-08-08T02:57:20;98441.16;;;19.94;55.25
42887;BME280;29032;56.028;92.904;2023-08-08T03:02:22;98443.47;;;19.98;54.88
42887;BME280;29032;56.028;92.904;2023-08-08T03:07:24;98438.69;;;20.12;54.78
42887;BME280;29032;56.028;92.904;2023-08-08T03:12:28;98434.81;;;20.29;54.25
42887;BME280;29032;56.028;92.904;2023-08-08T03:17:30;98445.44;;;20.42;53.63
42887;BME280;29032;56.028;92.904;2023-08-08T03:22:33;98442.50;;;20.52;53.45
42887;BME280;29032;56.028;92.904;2023-08-08T03:27:37;98433.44;;;20.65;52.58
42887;BME280;29032;56.028;92.904;2023-08-08T03:32:40;98441.63;;;20.73;53.22
42887;BME280;29032;56.028;92.904;2023-08-08T03:37:42;98435.59;;;20.78;53.82
42887;BME280;29032;56.028;92.904;2023-08-08T03:42:46;98432.88;;;20.92;54.42
42887;BME280;29032;56.028;92.904;2023-08-08T03:47:48;98423.63;;;21.03;53.98
42887;BME280;29032;56.028;92.904;2023-08-08T03:52:50;98429.69;;;21.23;53.20
42887;BME280;29032;56.028;92.904;2023-08-08T03:57:54;98427.16;;;21.41;53.26
42887;BME280;29032;56.028;92.904;2023-08-08T04:02:56;98418.19;;;21.44;52.47
42887;BME280;29032;56.028;92.904;2023-08-08T04:07:58;98418.63;;;21.53;52.94
42887;BME280;29032;56.028;92.904;2023-08-08T04:13:01;98413.13;;;21.68;52.32
42887;BME280;29032;56.028;92.904;2023-08-08T04:18:04;98418.06;;;21.82;52.32
42887;BME280;29032;56.028;92.904;2023-08-08T04:23:06;98414.88;;;21.87;51.71
42887;BME280;29032;56.028;92.904;2023-08-08T04:28:10;98416.56;;;22.06;50.60
42887;BME280;29032;56.028;92.904;2023-08-08T04:33:12;98420.97;;;22.09;49.95
42887;BME280;29032;56.028;92.904;2023-08-08T04:38:14;98411.53;;;22.18;49.65
42887;BME280;29032;56.028;92.904;2023-08-08T04:43:18;98405.78;;;22.30;49.74
42887;BME280;29032;56.028;92.904;2023-08-08T04:48:20;98409.97;;;22.43;49.68
42887;BME280;29032;56.028;92.904;2023-08-08T04:53:22;98412.50;;;22.50;49.58
42887;BME280;29032;56.028;92.904;2023-08-08T04:58:26;98407.66;;;22.67;49.77
42887;BME280;29032;56.028;92.904;2023-08-08T05:03:28;98404.63;;;22.76;49.18
42887;BME280;29032;56.028;92.904;2023-08-08T05:08:43;98404.94;;;23.12;48.02
42887;BME280;29032;56.028;92.904;2023-08-08T05:13:52;98398.59;;;23.27;46.05
42887;BME280;29032;56.028;92.904;2023-08-08T05:18:54;98396.25;;;23.37;47.53
42887;BME280;29032;56.028;92.904;2023-08-08T05:23:56;98396.31;;;23.53;46.48
42887;BME280;29032;56.028;92.904;2023-08-08T05:29:00;98383.16;;;23.76;46.27
42887;BME280;29032;56.028;92.904;2023-08-08T05:34:02;98389.38;;;23.88;46.44
42887;BME280;29032;56.028;92.904;2023-08-08T05:39:04;98383.44;;;23.98;46.68
42887;BME280;29032;56.028;92.904;2023-08-08T05:44:07;98382.41;;;24.23;46.80
42887;BME280;29032;56.028;92.904;2023-08-08T05:49:09;98388.22;;;24.42;45.75
42887;BME280;29032;56.028;92.904;2023-08-08T05:54:11;98387.28;;;24.54;44.17
42887;BME280;29032;56.028;92.904;2023-08-08T05:59:15;98381.44;;;24.50;46.03
42887;BME280;29032;56.028;92.904;2023-08-08T06:04:17;98374.22;;;24.46;45.04
42887;BME280;29032;56.028;92.904;2023-08-08T06:09:19;98386.50;;;24.69;45.10
42887;BME280;29032;56.028;92.904;2023-08-08T06:14:23;98384.88;;;24.64;46.58
42887;BME280;29032;56.028;92.904;2023-08-08T06:19:25;98385.25;;;24.56;43.87
42887;BME280;29032;56.028;92.904;2023-08-08T06:24:27;98376.50;;;24.50;45.65
42887;BME280;29032;56.028;92.904;2023-08-08T06:29:30;98371.47;;;24.48;44.86
42887;BME280;29032;56.028;92.904;2023-08-08T06:34:32;98383.28;;;24.43;46.62
42887;BME280;29032;56.028;92.904;2023-08-08T06:39:34;98378.53;;;24.47;46.70
42887;BME280;29032;56.028;92.904;2023-08-08T06:44:43;98372.78;;;24.63;44.45
42887;BME280;29032;56.028;92.904;2023-08-08T06:49:45;98372.44;;;24.55;44.72
42887;BME280;29032;56.028;92.904;2023-08-08T06:54:47;98384.59;;;24.58;42.69
42887;BME280;29032;56.028;92.904;2023-08-08T06:59:51;98379.28;;;24.66;43.50
42887;BME280;29032;56.028;92.904;2023-08-08T07:04:53;98377.72;;;24.63;42.47
42887;BME280;29032;56.028;92.904;2023-08-08T07:09:55;98377.81;;;24.65;43.21
42887;BME280;29032;56.028;92.904;2023-08-08T07:14:59;98374.44;;;24.86;42.83
42887;BME280;29032;56.028;92.904;2023-08-08T07:20:01;98376.84;;;25.10;41.87
42887;BME280;29032;56.028;92.904;2023-08-08T07:25:04;98370.16;;;25.21;41.67
42887;BME280;29032;56.028;92.904;2023-08-08T07:30:08;98371.47;;;25.18;42.67
42887;BME280;29032;56.028;92.904;2023-08-08T07:35:11;98368.78;;;25.04;42.39
42887;BME280;29032;56.028;92.904;2023-08-08T07:40:16;98367.84;;;25.15;38.62
42887;BME280;29032;56.028;92.904;2023-08-08T07:45:21;98363.19;;;25.24;38.54
42887;BME280;29032;56.028;92.904;2023-08-08T07:50:26;98360.72;;;25.34;39.30
42887;BME280;29032;56.028;92.904;2023-08-08T07:55:28;98359.72;;;25.43;39.85
42887;BME280;29032;56.028;92.904;2023-08-08T08:00:32;98357.19;;;25.51;39.53
42887;BME280;29032;56.028;92.904;2023-08-08T08:05:34;98353.84;;;25.57;38.30
42887;BME280;29032;56.028;92.904;2023-08-08T08:10:37;98354.13;;;25.65;38.93
42887;BME280;29032;56.028;92.904;2023-08-08T08:15:40;98361.22;;;25.84;38.20
42887;BME280;29032;56.028;92.904;2023-08-08T08:20:43;98351.53;;;25.91;37.84
42887;BME280;29032;56.028;92.904;2023-08-08T08:25:45;98342.88;;;26.07;37.33
42887;BME280;29032;56.028;92.904;2023-08-08T08:30:49;98351.38;;;26.27;36.50
42887;BME280;29032;56.028;92.904;2023-08-08T08:35:53;98347.50;;;26.38;36.83
42887;BME280;29032;56.028;92.904;2023-08-08T08:40:57;98349.44;;;26.53;36.49
42887;BME280;29032;56.028;92.904;2023-08-08T08:46:01;98348.06;;;26.76;36.17
42887;BME280;29032;56.028;92.904;2023-08-08T08:51:04;98348.06;;;27.20;37.17
42887;BME280;29032;56.028;92.904;2023-08-08T08:56:06;98341.38;;;27.11;35.04
42887;BME280;29032;56.028;92.904;2023-08-08T09:01:10;98343.00;;;27.18;36.20
42887;BME280;29032;56.028;92.904;2023-08-08T09:06:13;98334.72;;;27.27;37.37
42887;BME280;29032;56.028;92.904;2023-08-08T09:11:17;98333.66;;;27.38;34.98
42887;BME280;29032;56.028;92.904;2023-08-08T09:16:23;98335.28;;;27.45;35.58
42887;BME280;29032;56.028;92.904;2023-08-08T09:21:26;98336.47;;;27.14;36.03
42887;BME280;29032;56.028;92.904;2023-08-08T09:26:28;98338.22;;;27.01;36.28
42887;BME280;29032;56.028;92.904;2023-08-08T09:31:34;98329.63;;;26.99;36.68
42887;BME280;29032;56.028;92.904;2023-08-08T09:36:41;98331.78;;;27.01;36.58
42887;BME280;29032;56.028;92.904;2023-08-08T09:41:46;98336.28;;;27.08;35.55
42887;BME280;29032;56.028;92.904;2023-08-08T09:46:50;98339.88;;;26.86;37.06
42887;BME280;29032;56.028;92.904;2023-08-08T09:51:53;98341.97;;;26.64;39.29
42887;BME280;29032;56.028;92.904;2023-08-08T09:56:56;98346.31;;;26.45;38.06
42887;BME280;29032;56.028;92.904;2023-08-08T10:02:01;98347.44;;;26.36;39.92
42887;BME280;29032;56.028;92.904;2023-08-08T10:07:03;98347.59;;;26.20;39.48
42887;BME280;29032;56.028;92.904;2023-08-08T10:12:08;98357.97;;;26.12;39.51
42887;BME280;29032;56.028;92.904;2023-08-08T10:17:15;98356.66;;;26.15;40.78
42887;BME280;29032;56.028;92.904;2023-08-08T10:22:21;98360.75;;;26.09;40.56
42887;BME280;29032;56.028;92.904;2023-08-08T10:27:31;98352.88;;;26.08;39.18
42887;BME280;29032;56.028;92.904;2023-08-08T10:32:42;98351.31;;;26.05;40.20
42887;BME280;29032;56.028;92.904;2023-08-08T10:37:52;98355.25;;;25.96;40.35
42887;BME280;29032;56.028;92.904;2023-08-08T10:42:54;98350.88;;;25.73;41.19
42887;BME280;29032;56.028;92.904;2023-08-08T10:48:07;98350.38;;;25.78;41.75
42887;BME280;29032;56.028;92.904;2023-08-08T10:53:10;98347.88;;;25.69;41.58
42887;BME280;29032;56.028;92.904;2023-08-08T10:58:13;98344.53;;;25.74;41.29
42887;BME280;29032;56.028;92.904;2023-08-08T11:03:17;98344.59;;;25.76;41.64
42887;BME280;29032;56.028;92.904;2023-08-08T11:08:19;98346.63;;;25.74;41.46
42887;BME280;29032;56.028;92.904;2023-08-08T11:13:22;98352.16;;;25.70;43.45
42887;BME280;29032;56.028;92.904;2023-08-08T11:18:25;98346.88;;;25.80;43.40
42887;BME280;29032;56.028;92.904;2023-08-08T11:23:27;98335.50;;;25.80;41.88
42887;BME280;29032;56.028;92.904;2023-08-08T11:28:29;98343.78;;;25.74;42.35
42887;BME280;29032;56.028;92.904;2023-08-08T11:33:33;98342.47;;;25.77;41.88
42887;BME280;29032;56.028;92.904;2023-08-08T11:38:35;98330.97;;;25.73;42.06
42887;BME280;29032;56.028;92.904;2023-08-08T11:43:37;98326.03;;;25.73;41.45
42887;BME280;29032;56.028;92.904;2023-08-08T11:48:41;98337.53;;;25.77;41.49
42887;BME280;29032;56.028;92.904;2023-08-08T11:53:50;98342.03;;;25.84;42.59
42887;BME280;29032;56.028;92.904;2023-08-08T11:58:52;98338.69;;;25.70;43.22
42887;BME280;29032;56.028;92.904;2023-08-08T12:03:58;98337.44;;;25.75;42.91
42887;BME280;29032;56.028;92.904;2023-08-08T12:09:02;98340.72;;;25.68;44.46
42887;BME280;29032;56.028;92.904;2023-08-08T12:14:06;98331.97;;;25.62;45.11
42887;BME280;29032;56.028;92.904;2023-08-08T12:19:10;98343.34;;;25.62;44.10
42887;BME280;29032;56.028;92.904;2023-08-08T12:24:12;98344.38;;;25.50;44.13
42887;BME280;29032;56.028;92.904;2023-08-08T12:29:14;98344.19;;;25.46;44.29
42887;BME280;29032;56.028;92.904;2023-08-08T12:34:18;98337.06;;;25.45;43.62
42887;BME280;29032;56.028;92.904;2023-08-08T12:39:20;98342.97;;;25.34;43.75
42887;BME280;29032;56.028;92.904;2023-08-08T12:44:22;98347.78;;;25.29;42.46
42887;BME280;29032;56.028;92.904;2023-08-08T12:49:26;98361.88;;;25.27;43.00
42887;BME280;29032;56.028;92.904;2023-08-08T12:54:28;98357.34;;;25.20;43.39
42887;BME280;29032;56.028;92.904;2023-08-08T12:59:30;98362.31;;;25.19;42.56
42887;BME280;29032;56.028;92.904;2023-08-08T13:04:34;98364.34;;;25.17;42.07
42887;BME280;29032;56.028;92.904;2023-08-08T13:09:36;98372.53;;;25.09;42.56
42887;BME280;29032;56.028;92.904;2023-08-08T13:14:38;98372.44;;;25.07;42.29
42887;BME280;29032;56.028;92.904;2023-08-08T13:19:41;98368.63;;;25.00;42.34
42887;BME280;29032;56.028;92.904;2023-08-08T13:24:43;98373.50;;;24.80;42.98
42887;BME280;29032;56.028;92.904;2023-08-08T13:29:45;98392.38;;;24.73;42.42
42887;BME280;29032;56.028;92.904;2023-08-08T13:34:49;98397.09;;;24.84;40.24
42887;BME280;29032;56.028;92.904;2023-08-08T13:39:51;98400.75;;;24.87;41.46
42887;BME280;29032;56.028;92.904;2023-08-08T13:44:53;98416.88;;;24.82;42.29
42887;BME280;29032;56.028;92.904;2023-08-08T13:49:56;98423.81;;;24.79;42.58
42887;BME280;29032;56.028;92.904;2023-08-08T13:54:59;98431.81;;;24.67;42.93
42887;BME280;29032;56.028;92.904;2023-08-08T14:00:01;98437.16;;;24.59;42.98
42887;BME280;29032;56.028;92.904;2023-08-08T14:05:10;98439.97;;;24.59;43.15
42887;BME280;29032;56.028;92.904;2023-08-08T14:10:12;98443.66;;;24.45;43.42
42887;BME280;29032;56.028;92.904;2023-08-08T14:15:14;98448.78;;;24.33;43.87
42887;BME280;29032;56.028;92.904;2023-08-08T14:20:18;98452.94;;;24.30;44.29
42887;BME280;29032;56.028;92.904;2023-08-08T14:25:20;98460.97;;;24.20;44.49
42887;BME280;29032;56.028;92.904;2023-08-08T14:30:22;98453.91;;;24.21;44.42
42887;BME280;29032;56.028;92.904;2023-08-08T14:35:26;98459.78;;;24.25;45.62
42887;BME280;29032;56.028;92.904;2023-08-08T14:40:28;98454.66;;;24.22;45.05
42887;BME280;29032;56.028;92.904;2023-08-08T14:45:30;98455.03;;;24.14;44.84
42887;BME280;29032;56.028;92.904;2023-08-08T14:50:33;98463.53;;;24.14;44.58
42887;BME280;29032;56.028;92.904;2023-08-08T14:55:36;98458.88;;;24.05;44.66
42887;BME280;29032;56.028;92.904;2023-08-08T15:00:38;98464.44;;;24.03;44.47
42887;BME280;29032;56.028;92.904;2023-08-08T15:05:41;98460.97;;;24.04;44.75
42887;BME280;29032;56.028;92.904;2023-08-08T15:10:43;98461.41;;;23.99;44.77
42887;BME280;29032;56.028;92.904;2023-08-08T15:15:45;98462.69;;;23.96;45.82
42887;BME280;29032;56.028;92.904;2023-08-08T15:20:49;98468.53;;;24.00;46.75
42887;BME280;29032;56.028;92.904;2023-08-08T15:25:51;98467.97;;;23.87;46.62
42887;BME280;29032;56.028;92.904;2023-08-08T15:30:53;98473.16;;;23.77;45.63
42887;BME280;29032;56.028;92.904;2023-08-08T15:35:57;98470.13;;;23.73;45.71
42887;BME280;29032;56.028;92.904;2023-08-08T15:40:59;98469.59;;;23.61;45.96
42887;BME280;29032;56.028;92.904;2023-08-08T15:46:01;98469.28;;;23.55;46.20
42887;BME280;29032;56.028;92.904;2023-08-08T15:51:04;98475.13;;;23.59;46.40
42887;BME280;29032;56.028;92.904;2023-08-08T15:56:06;98479.03;;;23.52;47.21
42887;BME280;29032;56.028;92.904;2023-08-08T16:01:08;98478.84;;;23.48;46.60
42887;BME280;29032;56.028;92.904;2023-08-08T16:06:12;98494.38;;;23.47;48.15
42887;BME280;29032;56.028;92.904;2023-08-08T16:11:14;98504.56;;;23.38;48.73
42887;BME280;29032;56.028;92.904;2023-08-08T16:16:16;98484.16;;;23.26;47.97
42887;BME280;29032;56.028;92.904;2023-08-08T16:21:19;98479.25;;;23.13;48.15
42887;BME280;29032;56.028;92.904;2023-08-08T16:26:21;98465.88;;;22.99;51.35
42887;BME280;29032;56.028;92.904;2023-08-08T16:31:23;98475.41;;;22.92;51.51
42887;BME280;29032;56.028;92.904;2023-08-08T16:36:27;98473.53;;;22.97;49.98
42887;BME280;29032;56.028;92.904;2023-08-08T16:41:29;98464.84;;;22.79;51.03
42887;BME280;29032;56.028;92.904;2023-08-08T16:46:31;98488.75;;;22.76;51.39
42887;BME280;29032;56.028;92.904;2023-08-08T16:51:35;98482.56;;;22.79;51.06
42887;BME280;29032;56.028;92.904;2023-08-08T16:56:37;98468.31;;;22.77;48.85
42887;BME280;29032;56.028;92.904;2023-08-08T17:01:39;98467.03;;;22.80;48.87
42887;BME280;29032;56.028;92.904;2023-08-08T17:06:42;98475.66;;;22.82;50.03
42887;BME280;29032;56.028;92.904;2023-08-08T17:11:44;98476.91;;;22.79;51.33
42887;BME280;29032;56.028;92.904;2023-08-08T17:16:46;98474.16;;;22.81;49.30
42887;BME280;29032;56.028;92.904;2023-08-08T17:21:50;98471.47;;;22.83;49.93
42887;BME280;29032;56.028;92.904;2023-08-08T17:26:52;98490.84;;;22.75;49.09
42887;BME280;29032;56.028;92.904;2023-08-08T17:31:54;98520.47;;;22.61;48.60
42887;BME280;29032;56.028;92.904;2023-08-08T17:36:57;98502.00;;;22.46;53.57
42887;BME280;29032;56.028;92.904;2023-08-08T17:41:59;98470.44;;;21.96;56.07
42887;BME280;29032;56.028;92.904;2023-08-08T17:47:01;98472.22;;;21.64;58.52
42887;BME280;29032;56.028;92.904;2023-08-08T17:52:05;98475.03;;;21.64;58.98
42887;BME280;29032;56.028;92.904;2023-08-08T17:57:07;98487.91;;;21.42;59.77
42887;BME280;29032;56.028;92.904;2023-08-08T18:02:09;98487.53;;;21.10;59.17
42887;BME280;29032;56.028;92.904;2023-08-08T18:07:12;98489.00;;;21.00;60.86
42887;BME280;29032;56.028;92.904;2023-08-08T18:12:14;98503.09;;;21.00;61.39
42887;BME280;29032;56.028;92.904;2023-08-08T18:17:16;98493.41;;;21.03;58.36
42887;BME280;29032;56.028;92.904;2023-08-08T18:22:20;98492.66;;;21.02;58.79
42887;BME280;29032;56.028;92.904;2023-08-08T18:27:22;98500.78;;;20.96;60.38
42887;BME280;29032;56.028;92.904;2023-08-08T18:32:24;98495.50;;;20.90;60.89
42887;BME280;29032;56.028;92.904;2023-08-08T18:37:27;98493.41;;;20.91;57.56
42887;BME280;29032;56.028;92.904;2023-08-08T18:42:29;98495.53;;;20.79;55.96
42887;BME280;29032;56.028;92.904;2023-08-08T18:47:31;98497.63;;;20.66;59.45
42887;BME280;29032;56.028;92.904;2023-08-08T18:52:35;98508.66;;;20.62;61.14
42887;BME280;29032;56.028;92.904;2023-08-08T18:57:37;98519.34;;;20.52;60.24
42887;BME280;29032;56.028;92.904;2023-08-08T19:02:39;98527.31;;;20.44;61.04
42887;BME280;29032;56.028;92.904;2023-08-08T19:07:42;98527.28;;;20.32;61.61
42887;BME280;29032;56.028;92.904;2023-08-08T19:12:44;98525.78;;;20.20;61.85
42887;BME280;29032;56.028;92.904;2023-08-08T19:17:46;98537.19;;;20.22;62.14
42887;BME280;29032;56.028;92.904;2023-08-08T19:22:50;98533.63;;;20.21;62.21
42887;BME280;29032;56.028;92.904;2023-08-08T19:27:52;98540.44;;;20.06;60.53
42887;BME280;29032;56.028;92.904;2023-08-08T19:37:56;98543.25;;;20.06;60.73
42887;BME280;29032;56.028;92.904;2023-08-08T19:42:58;98534.06;;;19.94;62.26
42887;BME280;29032;56.028;92.904;2023-08-08T19:48:00;98534.75;;;19.83;60.33
42887;BME280;29032;56.028;92.904;2023-08-08T19:53:04;98541.75;;;19.82;62.33
42887;BME280;29032;56.028;92.904;2023-08-08T19:58:06;98534.75;;;19.83;59.94
42887;BME280;29032;56.028;92.904;2023-08-08T20:03:08;98538.94;;;19.82;60.94
42887;BME280;29032;56.028;92.904;2023-08-08T20:08:11;98544.56;;;19.82;62.07
42887;BME280;29032;56.028;92.904;2023-08-08T20:13:13;98545.41;;;19.73;62.25
42887;BME280;29032;56.028;92.904;2023-08-08T20:18:15;98549.53;;;19.72;62.30
42887;BME280;29032;56.028;92.904;2023-08-08T20:23:19;98553.56;;;19.69;60.18
42887;BME280;29032;56.028;92.904;2023-08-08T20:28:21;98558.69;;;19.61;59.92
42887;BME280;29032;56.028;92.904;2023-08-08T20:33:23;98554.53;;;19.62;60.29
42887;BME280;29032;56.028;92.904;2023-08-08T20:38:26;98560.81;;;19.50;61.84
42887;BME280;29032;56.028;92.904;2023-08-08T20:43:28;98557.06;;;19.36;61.23
42887;BME280;29032;56.028;92.904;2023-08-08T20:48:30;98563.63;;;19.29;62.10
42887;BME280;29032;56.028;92.904;2023-08-08T20:53:34;98563.38;;;19.25;62.38
42887;BME280;29032;56.028;92.904;2023-08-08T20:58:36;98567.94;;;19.09;62.31
42887;BME280;29032;56.028;92.904;2023-08-08T21:03:38;98558.50;;;18.94;63.02
42887;BME280;29032;56.028;92.904;2023-08-08T21:08:41;98565.22;;;18.89;62.90
42887;BME280;29032;56.028;92.904;2023-08-08T21:13:43;98576.84;;;18.74;63.39
42887;BME280;29032;56.028;92.904;2023-08-08T21:18:45;98570.06;;;18.67;63.55
42887;BME280;29032;56.028;92.904;2023-08-08T21:23:49;98579.06;;;18.66;63.87
42887;BME280;29032;56.028;92.904;2023-08-08T21:28:51;98571.41;;;18.57;64.05
42887;BME280;29032;56.028;92.904;2023-08-08T21:33:53;98574.53;;;18.61;63.32
42887;BME280;29032;56.028;92.904;2023-08-08T21:38:57;98573.63;;;18.68;63.46
42887;BME280;29032;56.028;92.904;2023-08-08T21:43:59;98573.63;;;18.58;63.18
42887;BME280;29032;56.028;92.904;2023-08-08T21:49:01;98574.38;;;18.59;63.17
42887;BME280;29032;56.028;92.904;2023-08-08T21:54:05;98566.84;;;18.61;63.38
42887;BME280;29032;56.028;92.904;2023-08-08T21:59:07;98590.66;;;18.51;63.20
42887;BME280;29032;56.028;92.904;2023-08-08T22:04:09;98583.75;;;18.42;63.42
42887;BME280;29032;56.028;92.904;2023-08-08T22:09:12;98585.94;;;18.43;63.81
42887;BME280;29032;56.028;92.904;2023-08-08T22:14:15;98593.38;;;18.39;63.65
42887;BME280;29032;56.028;92.904;2023-08-08T22:19:17;98595.28;;;18.36;63.81
42887;BME280;29032;56.028;92.904;2023-08-08T22:24:20;98582.88;;;18.39;63.50
42887;BME280;29032;56.028;92.904;2023-08-08T22:29:22;98588.06;;;18.33;63.11
42887;BME280;29032;56.028;92.904;2023-08-08T22:34:24;98593.81;;;18.35;62.95
42887;BME280;29032;56.028;92.904;2023-08-08T22:39:27;98591.28;;;18.39;63.58
42887;BME280;29032;56.028;92.904;2023-08-08T22:44:29;98591.16;;;18.28;62.53
42887;BME280;29032;56.028;92.904;2023-08-08T22:49:31;98591.34;;;18.20;63.30
42887;BME280;29032;56.028;92.904;2023-08-08T22:54:35;98598.72;;;18.25;63.68
42887;BME280;29032;56.028;92.904;2023-08-08T22:59:37;98597.53;;;18.28;63.44
42887;BME280;29032;56.028;92.904;2023-08-08T23:04:39;98603.56;;;18.34;62.88
42887;BME280;29032;56.028;92.904;2023-08-08T23:09:42;98600.00;;;18.43;63.42
42887;BME280;29032;56.028;92.904;2023-08-08T23:14:44;98608.72;;;18.47;62.47
42887;BME280;29032;56.028;92.904;2023-08-08T23:19:46;98602.31;;;18.57;61.92
42887;BME280;29032;56.028;92.904;2023-08-08T23:24:50;98612.81;;;18.66;61.44
42887;BME280;29032;56.028;92.904;2023-08-08T23:29:52;98612.22;;;18.67;61.20
42887;BME280;29032;56.028;92.904;2023-08-08T23:34:54;98618.16;;;18.62;61.78
42887;BME280;29032;56.028;92.904;2023-08-08T23:39:57;98630.56;;;18.59;62.51
42887;BME280;29032;56.028;92.904;2023-08-08T23:44:59;98626.28;;;18.58;62.23
42887;BME280;29032;56.028;92.904;2023-08-08T23:50:01;98625.97;;;18.63;61.50
42887;BME280;29032;56.028;92.904;2023-08-08T23:55:05;98625.38;;;18.74;60.85
